Time;durP1;ratioP1;P1;durP2;ratioP2;P2;SDS_P1;SDS_P2;PMS_P1;PMS_P2;Temp;Humidity;BMP_temperature;BMP_pressure;BME280_temperature;BME280_humidity;BME280_pressure;Samples;Min_cycle;Max_cycle;Signal;HPM_P1;HPM_P2
2022/12/11 00:01:09;;;;;;;122.60;48.37;;;0.00;99.90;;;;;;5091493;28;20100;-76
2022/12/11 00:03:35;;;;;;;197.53;55.30;;;0.00;99.90;;;;;;5081201;28;20057;-75
2022/12/11 00:06:07;;;;;;;97.40;45.63;;;0.00;99.90;;;;;;5078921;28;20039;-75
2022/12/11 00:08:34;;;;;;;106.70;47.40;;;0.00;99.90;;;;;;5108438;28;20672;-76
2022/12/11 00:11:00;;;;;;;99.57;45.77;;;0.00;99.90;;;;;;5105952;28;20043;-76
2022/12/11 00:13:25;;;;;;;302.67;67.70;;;0.00;99.90;;;;;;5107775;28;20070;-76
2022/12/11 00:15:51;;;;;;;185.23;56.67;;;0.00;99.90;;;;;;5091471;28;20167;-75
2022/12/11 00:18:17;;;;;;;112.93;46.50;;;0.00;99.90;;;;;;5105163;28;20062;-76
2022/12/11 00:20:43;;;;;;;219.80;61.00;;;-0.10;99.90;;;;;;5075767;28;20452;-76
2022/12/11 00:23:09;;;;;;;96.33;42.90;;;0.00;99.90;;;;;;5111123;28;20047;-75
2022/12/11 00:25:41;;;;;;;90.27;43.20;;;0.00;99.90;;;;;;5089891;28;20050;-75
2022/12/11 00:28:06;;;;;;;178.37;57.07;;;0.00;99.90;;;;;;5092375;28;20051;-76
2022/12/11 00:30:32;;;;;;;114.73;47.00;;;0.00;99.90;;;;;;5113379;27;20389;-75
2022/12/11 00:33:01;;;;;;;110.47;48.10;;;0.00;99.90;;;;;;5100321;27;20039;-76
2022/12/11 00:35:26;;;;;;;134.30;49.67;;;0.00;99.90;;;;;;5092230;27;20659;-75
2022/12/11 00:37:52;;;;;;;112.73;48.47;;;0.00;99.90;;;;;;5089141;27;20050;-75
2022/12/11 00:40:18;;;;;;;112.30;46.93;;;0.00;99.90;;;;;;5094234;27;20097;-75
2022/12/11 00:42:45;;;;;;;147.20;49.87;;;0.00;99.90;;;;;;5095450;27;20097;-76
2022/12/11 00:45:10;;;;;;;105.47;45.20;;;0.00;99.90;;;;;;5100342;27;20179;-76
2022/12/11 00:47:36;;;;;;;106.40;46.60;;;0.10;99.90;;;;;;5074537;27;20027;-76
2022/12/11 00:50:02;;;;;;;97.17;44.10;;;0.10;99.90;;;;;;5069733;27;20613;-76
2022/12/11 00:52:27;;;;;;;153.07;51.23;;;0.10;99.90;;;;;;5112672;27;20038;-76
2022/12/11 00:54:53;;;;;;;171.70;52.20;;;0.10;99.90;;;;;;5110669;27;20047;-76
2022/12/11 00:57:19;;;;;;;114.43;46.90;;;0.10;99.90;;;;;;5096347;27;20504;-68
2022/12/11 00:59:45;;;;;;;142.90;50.47;;;0.10;99.90;;;;;;5136168;27;20039;-68
2022/12/11 01:02:10;;;;;;;107.87;45.37;;;0.10;99.90;;;;;;5097574;27;20043;-67
2022/12/11 01:04:36;;;;;;;105.00;44.87;;;0.10;99.90;;;;;;5114358;27;20332;-67
2022/12/11 01:07:02;;;;;;;99.80;42.60;;;0.10;99.90;;;;;;5095813;27;20031;-68
2022/12/11 01:12:12;;;;;;;121.73;47.87;;;0.10;99.90;;;;;;5111171;27;20158;-67
2022/12/11 01:14:38;;;;;;;117.83;47.17;;;0.10;99.90;;;;;;5097122;27;20168;-67
2022/12/11 01:17:04;;;;;;;100.10;43.03;;;0.10;99.90;;;;;;5112958;27;20036;-67
2022/12/11 01:19:30;;;;;;;119.73;47.17;;;0.10;99.90;;;;;;5108303;27;20526;-70
2022/12/11 01:21:56;;;;;;;119.90;47.87;;;0.20;99.90;;;;;;5110827;27;20035;-68
2022/12/11 01:24:22;;;;;;;105.33;44.97;;;0.20;99.90;;;;;;5088625;27;20047;-68
2022/12/11 01:26:48;;;;;;;120.93;48.47;;;0.20;99.90;;;;;;5094022;27;20047;-68
2022/12/11 01:29:13;;;;;;;134.43;49.27;;;0.20;99.90;;;;;;5102116;27;20051;-68
2022/12/11 01:31:40;;;;;;;128.47;48.30;;;0.20;99.90;;;;;;5052703;27;20137;-68
2022/12/11 01:34:06;;;;;;;141.10;51.80;;;0.20;99.90;;;;;;5104179;27;20063;-68
2022/12/11 01:36:31;;;;;;;226.10;57.87;;;0.20;99.90;;;;;;5097758;27;20039;-68
2022/12/11 01:38:57;;;;;;;148.87;53.00;;;0.20;99.90;;;;;;5096971;27;20043;-68
2022/12/11 01:41:23;;;;;;;150.73;51.80;;;0.20;99.90;;;;;;5103974;27;20172;-68
2022/12/11 01:44:24;;;;;;;143.37;51.73;;;0.20;99.90;;;;;;5113046;27;20139;-68
2022/12/11 01:46:50;;;;;;;130.73;49.25;;;0.20;99.90;;;;;;5086162;27;20505;-69
2022/12/11 01:49:17;;;;;;;119.27;47.43;;;0.20;99.90;;;;;;5092265;27;20419;-68
2022/12/11 01:51:50;;;;;;;146.83;50.83;;;0.20;99.90;;;;;;5090032;27;20126;-68
2022/12/11 01:54:18;;;;;;;149.30;50.17;;;0.20;99.90;;;;;;5116695;27;20050;-68
2022/12/11 01:56:46;;;;;;;97.73;42.53;;;0.20;99.90;;;;;;5095494;27;20054;-68
2022/12/11 01:59:15;;;;;;;130.17;47.27;;;0.30;99.90;;;;;;5090237;27;20051;-68
2022/12/11 02:01:57;;;;;;;128.45;46.90;;;0.30;99.90;;;;;;5114088;27;20039;-68
2022/12/11 02:04:23;;;;;;;100.67;42.77;;;0.30;99.90;;;;;;5117047;27;20083;-68
2022/12/11 02:06:50;;;;;;;100.93;42.23;;;0.40;99.90;;;;;;5087532;27;20046;-68
2022/12/11 02:09:21;;;;;;;148.37;49.90;;;0.30;99.90;;;;;;5092710;27;20051;-76
2022/12/11 02:11:52;;;;;;;103.55;43.13;;;0.30;99.90;;;;;;5078034;28;20112;-75
2022/12/11 02:14:40;;;;;;;94.77;39.83;;;0.30;99.90;;;;;;5118986;27;20086;-76
2022/12/11 02:17:29;;;;;;;100.70;41.57;;;0.40;99.90;;;;;;5097855;27;20054;-76
2022/12/11 02:20:18;;;;;;;134.37;44.67;;;0.30;99.90;;;;;;5119259;27;20521;-74
2022/12/11 02:23:06;;;;;;;123.43;44.20;;;0.30;99.90;;;;;;5081600;27;20054;-75
2022/12/11 02:25:56;;;;;;;96.60;39.07;;;0.30;99.90;;;;;;5105114;27;20180;-75
2022/12/11 02:28:36;;;;;;;108.13;43.47;;;0.40;99.90;;;;;;5117430;27;20404;-75
2022/12/11 02:31:12;;;;;;;133.13;46.38;;;0.30;99.90;;;;;;5114205;27;21133;-75
2022/12/11 02:33:52;;;;;;;100.57;39.63;;;0.40;99.90;;;;;;5104276;27;20047;-75
2022/12/11 02:36:22;;;;;;;104.90;40.50;;;0.40;99.90;;;;;;5104420;27;20487;-76
2022/12/11 02:38:50;;;;;;;100.35;40.00;;;0.40;99.90;;;;;;5118085;27;20458;-75
2022/12/11 02:41:19;;;;;;;95.40;39.03;;;0.30;99.90;;;;;;5098375;27;20405;-76
2022/12/11 02:43:47;;;;;;;108.07;41.73;;;0.40;99.90;;;;;;5099151;27;20112;-76
2022/12/11 02:46:14;;;;;;;139.67;45.43;;;0.40;99.90;;;;;;5088502;27;20043;-76
2022/12/11 02:48:41;;;;;;;102.60;39.67;;;0.40;99.90;;;;;;5097149;27;20335;-76
2022/12/11 02:51:09;;;;;;;126.67;44.93;;;0.40;99.90;;;;;;5069921;27;20492;-76
2022/12/11 02:53:37;;;;;;;102.73;39.53;;;0.40;99.90;;;;;;5091446;27;20050;-76
2022/12/11 02:56:15;;;;;;;106.87;40.77;;;0.40;99.90;;;;;;5109169;27;20122;-76
2022/12/11 02:59:00;;;;;;;138.47;45.97;;;0.40;99.90;;;;;;5089345;27;20036;-76
2022/12/11 03:01:26;;;;;;;125.13;45.00;;;0.40;99.90;;;;;;5116092;27;20507;-76
2022/12/11 03:03:54;;;;;;;87.60;38.10;;;0.40;99.90;;;;;;5076860;28;20039;-75
2022/12/11 03:06:25;;;;;;;123.07;45.57;;;0.40;99.90;;;;;;5103016;27;20192;-76
2022/12/11 03:08:51;;;;;;;123.40;45.00;;;0.40;99.90;;;;;;5095000;27;20042;-76
2022/12/11 03:11:17;;;;;;;101.80;40.13;;;0.40;99.90;;;;;;5098780;27;20440;-76
2022/12/11 03:13:43;;;;;;;192.37;50.30;;;0.40;99.90;;;;;;5091222;28;20035;-76
2022/12/11 03:16:37;;;;;;;101.57;39.73;;;0.40;99.90;;;;;;5114314;27;20096;-76
2022/12/11 03:19:17;;;;;;;111.30;43.63;;;0.40;99.90;;;;;;5102771;27;20184;-76
2022/12/11 03:22:03;;;;;;;105.40;39.67;;;0.40;99.90;;;;;;5075290;28;20062;-76
2022/12/11 03:24:51;;;;;;;116.83;45.20;;;0.50;99.90;;;;;;5084161;27;20055;-76
2022/12/11 03:27:29;;;;;;;194.17;51.47;;;0.50;99.90;;;;;;5081377;27;20512;-76
2022/12/11 03:30:03;;;;;;;102.27;40.40;;;0.50;99.90;;;;;;5091460;27;20149;-76
2022/12/11 03:32:38;;;;;;;113.10;45.10;;;0.50;99.90;;;;;;5078215;27;20052;-76
2022/12/11 03:35:26;;;;;;;165.47;48.50;;;0.50;99.90;;;;;;5104661;28;20520;-77
2022/12/11 03:37:56;;;;;;;123.20;44.93;;;0.50;99.90;;;;;;5106504;27;20486;-76
2022/12/11 03:40:24;;;;;;;111.53;44.53;;;0.50;99.90;;;;;;5084505;27;20086;-76
2022/12/11 03:42:52;;;;;;;125.97;45.83;;;0.40;99.90;;;;;;5099747;28;20125;-76
2022/12/11 03:45:19;;;;;;;100.10;40.07;;;0.50;99.90;;;;;;5103104;27;20043;-76
2022/12/11 03:47:46;;;;;;;101.30;40.90;;;0.50;99.90;;;;;;5120724;27;20035;-75
2022/12/11 03:50:15;;;;;;;103.03;40.90;;;0.50;99.90;;;;;;5100604;28;20050;-77
2022/12/11 03:52:44;;;;;;;118.40;43.47;;;0.50;99.90;;;;;;5084824;28;20489;-76
2022/12/11 03:55:13;;;;;;;132.60;44.97;;;0.60;99.90;;;;;;5103889;28;20134;-68
2022/12/11 03:57:38;;;;;;;103.77;42.00;;;0.50;99.90;;;;;;5085056;28;20053;-68
2022/12/11 04:00:08;;;;;;;109.67;43.40;;;0.50;99.90;;;;;;5102780;28;20059;-68
2022/12/11 04:02:34;;;;;;;105.10;42.17;;;0.50;99.90;;;;;;5095382;28;20043;-68
2022/12/11 04:04:59;;;;;;;120.47;44.53;;;0.50;99.90;;;;;;5119224;27;20111;-68
2022/12/11 04:07:25;;;;;;;124.53;43.97;;;0.50;99.90;;;;;;5085342;27;20031;-68
2022/12/11 04:09:51;;;;;;;110.03;42.93;;;0.50;99.90;;;;;;5071369;27;20043;-68
2022/12/11 04:12:17;;;;;;;109.07;42.40;;;0.50;99.90;;;;;;5109756;27;20039;-68
2022/12/11 04:15:01;;;;;;;124.13;43.30;;;0.50;99.90;;;;;;5088133;27;20863;-68
2022/12/11 04:25:50;;;;;;;120.20;43.57;;;0.50;99.90;;;;;;5090200;27;20106;-69
2022/12/11 04:28:16;;;;;;;100.50;42.23;;;0.50;99.90;;;;;;5123732;27;20100;-68
2022/12/11 04:30:48;;;;;;;121.10;45.27;;;0.50;99.90;;;;;;5085970;27;20044;-68
2022/12/11 04:33:14;;;;;;;124.80;46.23;;;0.50;99.90;;;;;;5102883;27;20047;-68
2022/12/11 04:35:40;;;;;;;157.23;50.03;;;0.60;99.90;;;;;;5101842;27;20041;-68
2022/12/11 04:38:05;;;;;;;128.97;47.60;;;0.50;99.90;;;;;;5106964;27;20099;-68
2022/12/11 04:40:31;;;;;;;120.30;45.77;;;0.50;99.90;;;;;;5097307;27;20063;-68
2022/12/11 04:42:57;;;;;;;94.90;40.97;;;0.50;99.90;;;;;;5106227;27;20042;-76
2022/12/11 04:45:23;;;;;;;119.23;44.60;;;0.50;99.90;;;;;;5085654;27;20047;-76
2022/12/11 04:47:49;;;;;;;99.53;41.90;;;0.50;99.90;;;;;;5120133;27;20092;-76
2022/12/11 04:50:15;;;;;;;116.60;44.53;;;0.50;99.90;;;;;;5102546;27;20088;-76
2022/12/11 04:52:41;;;;;;;116.63;45.67;;;0.50;99.90;;;;;;5104505;27;20104;-76
2022/12/11 04:55:08;;;;;;;98.10;41.37;;;0.50;99.90;;;;;;5123563;27;20043;-76
2022/12/11 04:57:34;;;;;;;105.17;42.80;;;0.50;99.90;;;;;;5104366;27;20043;-76
2022/12/11 05:00:00;;;;;;;98.07;41.83;;;0.50;99.90;;;;;;5105688;27;20074;-76
2022/12/11 05:02:26;;;;;;;101.00;41.57;;;0.50;99.90;;;;;;5078971;27;20083;-75
2022/12/11 05:04:52;;;;;;;117.93;45.43;;;0.50;99.90;;;;;;5111107;27;20073;-76
2022/12/11 05:07:18;;;;;;;108.93;44.10;;;0.50;99.90;;;;;;5097661;27;20150;-76
2022/12/11 05:09:43;;;;;;;95.80;40.60;;;0.50;99.90;;;;;;5102110;27;20034;-76
2022/12/11 05:12:09;;;;;;;94.97;42.00;;;0.60;99.90;;;;;;5119194;27;20043;-76
2022/12/11 05:14:35;;;;;;;96.03;40.97;;;0.50;99.90;;;;;;5099078;28;20270;-76
2022/12/11 05:17:01;;;;;;;87.33;39.67;;;0.50;99.90;;;;;;5083238;27;20118;-76
2022/12/11 05:19:27;;;;;;;94.37;40.97;;;0.60;99.90;;;;;;5090247;28;20132;-75
2022/12/11 05:21:52;;;;;;;98.03;40.67;;;0.50;99.90;;;;;;5104695;28;20071;-76
2022/12/11 05:24:18;;;;;;;122.40;46.53;;;0.60;99.90;;;;;;5102760;28;20257;-76
2022/12/11 05:26:44;;;;;;;104.00;44.30;;;0.60;99.90;;;;;;5081642;27;20486;-75
2022/12/11 05:29:10;;;;;;;118.37;45.60;;;0.50;99.90;;;;;;5086036;28;20399;-74
2022/12/11 05:31:36;;;;;;;114.63;46.47;;;0.60;99.90;;;;;;5097048;28;20481;-76
2022/12/11 05:34:02;;;;;;;127.10;46.83;;;0.60;99.90;;;;;;5094281;28;20249;-76
2022/12/11 05:36:30;;;;;;;111.93;43.70;;;0.60;99.90;;;;;;5066969;28;20238;-76
2022/12/11 05:39:01;;;;;;;126.27;45.47;;;0.50;99.90;;;;;;5115924;27;20577;-76
2022/12/11 05:41:30;;;;;;;117.07;43.88;;;0.60;99.90;;;;;;5085517;28;20051;-74
2022/12/11 05:43:56;;;;;;;128.20;47.30;;;0.50;99.90;;;;;;5079255;28;20036;-76
2022/12/11 05:46:24;;;;;;;165.63;51.10;;;0.60;99.90;;;;;;5100576;28;20054;-75
2022/12/11 05:48:54;;;;;;;110.53;43.77;;;0.60;99.90;;;;;;5099651;28;20040;-76
2022/12/11 05:51:20;;;;;;;125.00;45.77;;;0.60;99.90;;;;;;5084988;28;20043;-76
2022/12/11 05:53:48;;;;;;;112.83;44.33;;;0.60;99.90;;;;;;5091980;28;20498;-74
2022/12/11 05:56:19;;;;;;;119.57;44.57;;;0.60;99.90;;;;;;5102999;28;20039;-76
2022/12/11 05:58:47;;;;;;;118.53;44.47;;;0.60;99.90;;;;;;5090600;28;20042;-75
2022/12/11 06:01:34;;;;;;;110.93;43.57;;;0.60;99.90;;;;;;5087145;28;20055;-75
2022/12/11 06:04:01;;;;;;;125.07;44.73;;;0.60;99.90;;;;;;5097296;28;20051;-75
2022/12/11 06:06:27;;;;;;;124.80;45.40;;;0.60;99.90;;;;;;5080121;28;20079;-76
2022/12/11 06:08:55;;;;;;;121.73;44.83;;;0.60;99.90;;;;;;5097448;28;20043;-75
2022/12/11 06:11:21;;;;;;;124.07;44.63;;;0.60;99.90;;;;;;5088729;28;20047;-76
2022/12/11 06:13:47;;;;;;;125.53;45.87;;;0.60;99.90;;;;;;5092650;28;20619;-75
2022/12/11 06:16:14;;;;;;;108.70;43.77;;;0.60;99.90;;;;;;5099221;27;20532;-75
2022/12/11 06:18:41;;;;;;;123.63;44.37;;;0.60;99.90;;;;;;5106701;28;20054;-75
2022/12/11 06:21:15;;;;;;;123.00;45.33;;;0.70;99.90;;;;;;5034325;27;1286382;-76
2022/12/11 06:23:42;;;;;;;104.77;42.20;;;0.60;99.90;;;;;;5084394;27;20529;-76
2022/12/11 06:26:09;;;;;;;137.57;48.30;;;0.60;99.90;;;;;;5088921;27;20053;-76
2022/12/11 06:28:35;;;;;;;107.80;41.97;;;0.60;99.90;;;;;;5104894;27;20126;-68
2022/12/11 06:31:02;;;;;;;128.30;46.03;;;0.60;99.90;;;;;;5086839;27;20050;-68
2022/12/11 06:33:28;;;;;;;125.60;45.07;;;0.50;99.90;;;;;;5087478;27;20126;-68
2022/12/11 06:35:54;;;;;;;104.30;41.40;;;0.60;99.90;;;;;;5067836;28;20119;-68
2022/12/11 06:38:19;;;;;;;117.23;43.53;;;0.60;99.90;;;;;;5090924;27;20043;-68
2022/12/11 06:40:45;;;;;;;115.10;41.57;;;0.60;99.90;;;;;;5104343;27;20393;-68
2022/12/11 06:43:11;;;;;;;112.47;41.10;;;0.60;99.90;;;;;;5083707;28;20777;-68
2022/12/11 06:45:37;;;;;;;111.90;41.83;;;0.50;99.90;;;;;;5103964;27;20047;-68
2022/12/11 06:48:03;;;;;;;112.67;41.97;;;0.60;99.90;;;;;;5090259;27;20486;-68
2022/12/11 06:50:32;;;;;;;115.57;42.40;;;0.60;99.90;;;;;;5089705;27;20031;-68
2022/12/11 06:52:58;;;;;;;108.77;41.30;;;0.60;99.90;;;;;;5083044;28;20055;-68
2022/12/11 06:55:24;;;;;;;109.47;42.17;;;0.60;99.90;;;;;;5104546;27;20062;-76
2022/12/11 06:57:50;;;;;;;115.70;43.60;;;0.60;99.90;;;;;;5107485;27;20047;-76
2022/12/11 07:00:16;;;;;;;108.90;41.23;;;0.60;99.90;;;;;;5116971;27;20050;-76
2022/12/11 07:02:41;;;;;;;108.53;40.10;;;0.60;99.90;;;;;;5064458;28;20092;-75
2022/12/11 07:05:07;;;;;;;112.73;41.67;;;0.60;99.90;;;;;;5078610;27;20051;-76
2022/12/11 07:07:33;;;;;;;115.30;42.40;;;0.60;99.90;;;;;;5093883;27;20123;-76
2022/12/11 07:09:59;;;;;;;99.40;40.83;;;0.60;99.90;;;;;;5078449;27;20047;-76
2022/12/11 07:12:25;;;;;;;115.77;41.53;;;0.60;99.90;;;;;;5095257;27;20086;-76
2022/12/11 07:14:51;;;;;;;109.70;41.20;;;0.60;99.90;;;;;;5098137;27;20035;-76
2022/12/11 07:17:16;;;;;;;102.07;41.07;;;0.60;99.90;;;;;;5086132;27;20078;-75
2022/12/11 07:19:42;;;;;;;115.90;43.43;;;0.60;99.90;;;;;;5074643;28;20043;-75
2022/12/11 07:22:08;;;;;;;105.97;41.37;;;0.60;99.90;;;;;;5052212;28;20056;-76
2022/12/11 07:24:34;;;;;;;137.13;44.50;;;0.60;99.90;;;;;;5053937;28;20612;-75
2022/12/11 07:26:59;;;;;;;122.80;44.60;;;0.60;99.90;;;;;;5042591;28;20079;-76
2022/12/11 07:29:25;;;;;;;115.97;42.37;;;0.70;99.90;;;;;;5067522;28;20040;-76
2022/12/11 07:31:51;;;;;;;109.53;42.97;;;0.60;99.90;;;;;;5042239;28;20130;-75
2022/12/11 07:34:17;;;;;;;120.67;43.03;;;0.60;99.90;;;;;;5070682;28;20043;-76
2022/12/11 07:36:43;;;;;;;109.87;42.10;;;0.60;99.90;;;;;;5072795;28;20040;-76
2022/12/11 07:39:11;;;;;;;121.77;42.77;;;0.70;99.90;;;;;;5076773;28;20445;-75
2022/12/11 07:41:37;;;;;;;129.27;45.13;;;0.60;99.90;;;;;;5077857;28;20044;-76
2022/12/11 07:44:03;;;;;;;113.40;41.77;;;0.60;99.90;;;;;;5063898;28;20119;-76
2022/12/11 07:46:31;;;;;;;109.97;40.80;;;0.60;99.90;;;;;;5057371;28;20044;-76
2022/12/11 07:48:59;;;;;;;126.97;45.63;;;0.70;99.90;;;;;;5084061;28;20455;-76
2022/12/11 07:51:36;;;;;;;112.90;43.40;;;0.60;99.90;;;;;;5057853;28;20040;-75
2022/12/11 07:54:06;;;;;;;121.10;44.43;;;0.60;99.90;;;;;;5079194;28;20542;-76
2022/12/11 07:56:33;;;;;;;104.53;40.60;;;0.70;99.90;;;;;;5077007;28;20142;-76
2022/12/11 07:59:00;;;;;;;121.63;43.80;;;0.60;99.90;;;;;;5089402;28;20039;-76
2022/12/11 08:01:27;;;;;;;117.77;43.43;;;0.60;99.90;;;;;;5068735;28;20476;-76
2022/12/11 08:03:54;;;;;;;119.23;43.03;;;0.60;99.90;;;;;;5078466;28;20043;-76
2022/12/11 08:06:25;;;;;;;117.57;43.87;;;0.60;99.90;;;;;;5082523;28;20051;-75
2022/12/11 08:08:52;;;;;;;126.73;45.17;;;0.60;99.90;;;;;;5068405;28;20031;-75
2022/12/11 08:11:18;;;;;;;133.73;44.83;;;0.60;99.90;;;;;;5062138;28;20231;-76
2022/12/11 08:13:44;;;;;;;125.30;44.30;;;0.60;99.90;;;;;;5069558;28;20123;-75
2022/12/11 08:16:13;;;;;;;147.90;48.43;;;0.60;99.90;;;;;;5088631;28;20757;-76
2022/12/11 08:18:39;;;;;;;117.67;43.47;;;0.70;99.90;;;;;;5069212;28;20090;-76
2022/12/11 08:21:06;;;;;;;130.63;46.10;;;0.70;99.90;;;;;;5045704;28;20048;-76
2022/12/11 08:23:32;;;;;;;127.67;43.60;;;0.70;99.90;;;;;;5085188;28;20062;-75
2022/12/11 08:26:03;;;;;;;117.87;43.43;;;0.70;99.90;;;;;;5079076;28;20043;-76
2022/12/11 08:28:29;;;;;;;106.78;42.55;;;0.70;99.90;;;;;;5064555;28;20031;-76
2022/12/11 08:30:55;;;;;;;106.23;43.37;;;0.60;99.90;;;;;;5081454;28;20048;-75
2022/12/11 08:33:21;;;;;;;115.63;42.37;;;0.70;99.90;;;;;;5082684;28;20051;-76
2022/12/11 08:35:47;;;;;;;112.63;42.20;;;0.70;99.90;;;;;;5081362;28;20071;-76
2022/12/11 08:38:12;;;;;;;115.30;45.07;;;0.60;99.90;;;;;;5065645;28;20066;-76
2022/12/11 08:40:38;;;;;;;135.60;46.53;;;0.60;99.90;;;;;;5059113;28;20070;-76
2022/12/11 08:43:04;;;;;;;112.90;43.97;;;0.70;99.90;;;;;;5048436;28;20216;-75
2022/12/11 08:45:30;;;;;;;119.70;46.30;;;0.70;99.90;;;;;;5061580;28;20047;-75
2022/12/11 08:47:57;;;;;;;118.63;43.80;;;0.70;99.90;;;;;;5050061;28;20488;-76
2022/12/11 08:50:23;;;;;;;124.83;45.47;;;0.70;99.90;;;;;;5049616;28;20054;-76
2022/12/11 08:52:49;;;;;;;115.53;44.17;;;0.70;99.90;;;;;;5081725;28;20040;-76
2022/12/11 08:55:15;;;;;;;115.90;44.93;;;0.70;99.90;;;;;;5051966;28;20038;-76
2022/12/11 08:57:40;;;;;;;128.87;46.70;;;0.70;99.90;;;;;;5084410;28;20404;-76
2022/12/11 09:00:08;;;;;;;126.63;46.70;;;0.70;99.90;;;;;;5084229;28;20532;-75
2022/12/11 09:02:34;;;;;;;133.00;47.47;;;0.70;99.90;;;;;;5080406;28;20043;-76
2022/12/11 09:05:00;;;;;;;114.63;44.07;;;0.60;99.90;;;;;;5084615;28;20043;-76
2022/12/11 09:07:26;;;;;;;115.00;43.33;;;0.70;99.90;;;;;;5064753;28;20274;-76
2022/12/11 09:09:55;;;;;;;140.67;49.63;;;0.70;99.90;;;;;;5050280;28;20484;-77
2022/12/11 09:12:21;;;;;;;139.70;47.77;;;0.80;99.90;;;;;;5081917;28;20052;-76
2022/12/11 09:14:47;;;;;;;129.07;46.63;;;0.70;99.90;;;;;;5060680;28;20518;-75
2022/12/11 09:17:13;;;;;;;150.23;50.87;;;0.70;99.90;;;;;;5082316;28;20047;-75
2022/12/11 09:19:39;;;;;;;125.23;46.80;;;0.70;99.90;;;;;;5059702;28;20059;-75
2022/12/11 09:22:04;;;;;;;126.73;46.67;;;0.70;99.90;;;;;;5087729;27;20088;-76
2022/12/11 09:24:30;;;;;;;115.50;44.00;;;0.80;99.90;;;;;;5136905;27;20034;-74
2022/12/11 09:26:56;;;;;;;128.97;48.13;;;0.70;99.90;;;;;;5123949;27;20038;-75
2022/12/11 09:29:21;;;;;;;113.70;43.40;;;0.80;99.90;;;;;;5100088;27;20574;-75
2022/12/11 09:31:48;;;;;;;118.97;46.27;;;0.80;99.90;;;;;;5114368;27;20066;-75
2022/12/11 09:34:14;;;;;;;115.00;44.47;;;0.80;99.90;;;;;;5096285;27;20075;-76
2022/12/11 09:36:41;;;;;;;117.57;45.83;;;0.80;99.90;;;;;;5110158;27;20366;-76
2022/12/11 09:39:08;;;;;;;106.30;43.07;;;0.80;99.90;;;;;;5115125;27;20059;-76
2022/12/11 09:41:56;;;;;;;113.73;44.80;;;0.80;99.90;;;;;;5127837;27;20106;-76
2022/12/11 09:44:45;;;;;;;116.93;45.07;;;0.80;99.90;;;;;;5117687;27;20058;-76
2022/12/11 09:47:35;;;;;;;105.37;43.33;;;0.80;99.90;;;;;;5101044;27;20050;-76
2022/12/11 09:50:24;;;;;;;145.97;48.40;;;0.80;99.90;;;;;;5117192;27;20528;-76
2022/12/11 09:53:15;;;;;;;178.00;52.13;;;0.80;99.90;;;;;;5110473;27;20039;-76
2022/12/11 09:56:03;;;;;;;116.67;45.93;;;0.80;99.90;;;;;;5116807;27;20035;-76
2022/12/11 09:59:02;;;;;;;129.70;47.57;;;0.80;99.90;;;;;;5119876;27;20035;-76
2022/12/11 10:01:51;;;;;;;144.90;49.03;;;0.80;99.90;;;;;;5112703;27;20080;-76
2022/12/11 10:04:44;;;;;;;115.07;44.47;;;0.80;99.90;;;;;;5100162;27;20054;-76
2022/12/11 10:07:35;;;;;;;100.07;42.13;;;0.80;99.90;;;;;;5127180;27;20086;-78
2022/12/11 10:10:19;;;;;;;117.57;43.77;;;0.80;99.90;;;;;;5092470;27;20053;-69
2022/12/11 10:13:09;;;;;;;105.37;41.37;;;0.80;99.90;;;;;;5110575;27;20042;-68
2022/12/11 10:16:11;;;;;;;98.28;42.10;;;0.90;99.90;;;;;;5116129;27;20031;-68
2022/12/11 10:18:40;;;;;;;116.07;43.57;;;0.80;99.90;;;;;;5104906;27;20454;-68
2022/12/11 10:21:08;;;;;;;117.40;44.43;;;0.90;99.90;;;;;;5117922;27;20074;-69
2022/12/11 10:24:03;;;;;;;109.70;43.87;;;0.90;99.90;;;;;;5112174;27;20126;-69
2022/12/11 10:26:29;;;;;;;112.33;43.73;;;0.80;99.90;;;;;;5111300;27;20119;-69
2022/12/11 10:28:59;;;;;;;100.37;41.47;;;0.80;99.90;;;;;;5103432;27;20038;-76
2022/12/11 10:31:36;;;;;;;96.55;40.83;;;0.90;99.90;;;;;;5111945;27;20054;-76
2022/12/11 10:34:03;;;;;;;143.33;48.60;;;0.80;99.90;;;;;;5114939;27;20506;-76
2022/12/11 10:36:34;;;;;;;99.83;42.13;;;0.90;99.90;;;;;;5140529;27;20178;-77
2022/12/11 10:39:00;;;;;;;147.95;48.45;;;0.90;99.90;;;;;;5105642;27;20042;-76
2022/12/11 10:41:37;;;;;;;108.13;42.80;;;0.90;99.90;;;;;;5128219;27;20051;-77
2022/12/11 10:44:17;;;;;;;109.97;41.80;;;0.90;99.90;;;;;;5134822;27;20050;-76
2022/12/11 10:46:44;;;;;;;107.35;42.92;;;0.90;99.90;;;;;;5099751;27;20721;-76
2022/12/11 10:49:25;;;;;;;97.40;41.50;;;0.90;99.90;;;;;;5117369;27;20497;-77
2022/12/11 10:51:53;;;;;;;93.87;41.80;;;0.90;99.90;;;;;;5115757;27;20031;-77
2022/12/11 10:54:34;;;;;;;94.03;39.63;;;0.90;99.90;;;;;;5118451;27;20235;-76
2022/12/11 10:57:02;;;;;;;96.10;40.30;;;0.90;99.90;;;;;;5135057;27;20066;-76
2022/12/11 10:59:39;;;;;;;92.33;40.80;;;0.90;99.90;;;;;;5120656;27;20150;-77
2022/12/11 11:02:14;;;;;;;139.30;46.80;;;0.90;99.90;;;;;;5127425;27;20065;-76
2022/12/11 11:04:43;;;;;;;149.33;47.87;;;0.90;99.90;;;;;;5129342;27;20103;-76
2022/12/11 11:07:18;;;;;;;98.28;41.97;;;0.90;99.90;;;;;;5103345;27;20050;-76
2022/12/11 11:09:44;;;;;;;105.10;43.03;;;0.90;99.90;;;;;;5103901;27;20053;-77
2022/12/11 11:12:26;;;;;;;99.53;41.50;;;0.90;99.90;;;;;;5099045;27;20111;-77
2022/12/11 11:15:14;;;;;;;100.87;42.27;;;0.90;99.90;;;;;;5115265;27;20401;-76
2022/12/11 11:17:47;;;;;;;134.23;46.20;;;1.00;99.90;;;;;;5112973;27;20452;-77
2022/12/11 11:20:16;;;;;;;114.27;44.40;;;0.90;99.90;;;;;;5099399;27;20051;-77
2022/12/11 11:22:49;;;;;;;137.57;49.47;;;1.00;99.90;;;;;;5111145;27;20066;-77
2022/12/11 11:25:18;;;;;;;107.63;42.87;;;0.90;99.90;;;;;;5132835;27;20387;-78
2022/12/11 11:28:00;;;;;;;102.93;42.93;;;0.90;99.90;;;;;;5111510;27;20041;-77
2022/12/11 11:30:48;;;;;;;112.33;45.40;;;0.90;99.90;;;;;;5126564;27;20398;-77
2022/12/11 11:33:21;;;;;;;131.30;46.50;;;0.80;99.90;;;;;;5102893;27;20070;-77
2022/12/11 11:35:56;;;;;;;104.90;43.27;;;0.90;99.90;;;;;;5129034;27;20431;-78
2022/12/11 11:38:43;;;;;;;110.87;45.20;;;1.00;99.90;;;;;;5111964;27;20039;-77
2022/12/11 11:41:09;;;;;;;105.90;43.13;;;1.00;99.90;;;;;;5092051;27;20054;-77
2022/12/11 11:43:55;;;;;;;107.47;43.67;;;0.90;99.90;;;;;;5091439;27;20091;-78
2022/12/11 11:46:42;;;;;;;109.00;44.30;;;0.90;99.90;;;;;;5109403;27;20046;-77
2022/12/11 11:49:30;;;;;;;123.50;48.03;;;1.00;99.90;;;;;;5100859;27;20047;-77
2022/12/11 11:52:18;;;;;;;113.63;45.37;;;1.00;99.90;;;;;;5136756;27;20509;-77
2022/12/11 11:55:04;;;;;;;92.53;41.13;;;1.00;99.90;;;;;;5133331;27;20045;-76
2022/12/11 11:57:52;;;;;;;151.53;49.37;;;1.00;99.90;;;;;;5115062;27;20050;-78
2022/12/11 12:00:25;;;;;;;120.70;46.53;;;1.00;99.90;;;;;;5119636;27;20346;-78
2022/12/11 12:03:02;;;;;;;104.50;43.50;;;1.00;99.90;;;;;;5101231;27;20039;-78
2022/12/11 12:05:44;;;;;;;114.57;46.67;;;1.10;99.90;;;;;;5095925;27;20046;-78
2022/12/11 12:08:45;;;;;;;163.43;51.07;;;1.00;99.90;;;;;;5108537;27;20110;-78
2022/12/11 12:11:46;;;;;;;112.27;44.63;;;1.00;99.90;;;;;;5105606;27;20088;-71
2022/12/11 12:14:12;;;;;;;101.43;43.07;;;1.10;99.90;;;;;;5137758;27;20323;-71
2022/12/11 12:16:56;;;;;;;115.00;46.50;;;1.00;99.90;;;;;;5116714;28;20088;-69
2022/12/11 12:20:06;;;;;;;100.53;41.90;;;1.10;99.90;;;;;;5111933;27;20042;-69
2022/12/11 12:22:50;;;;;;;;;;;1.10;99.90;;;;;;5100059;28;20070;-71
2022/12/11 12:25:51;;;;;;;110.70;45.47;;;1.00;99.90;;;;;;5098145;27;20417;-71
2022/12/11 12:28:36;;;;;;;113.03;45.73;;;1.10;99.90;;;;;;5092691;27;20608;-69
2022/12/11 12:31:14;;;;;;;105.27;43.97;;;1.10;99.90;;;;;;5116551;27;20034;-69
2022/12/11 12:34:17;;;;;;;106.83;43.90;;;1.10;99.90;;;;;;5096302;27;20135;-69
2022/12/11 12:37:18;;;;;;;116.83;47.70;;;1.10;99.90;;;;;;5114784;27;20157;-69
2022/12/11 12:40:10;;;;;;;120.47;48.17;;;1.10;99.90;;;;;;5090994;28;20047;-71
2022/12/11 12:42:47;;;;;;;102.43;45.67;;;1.10;99.90;;;;;;5092517;27;20059;-71
2022/12/11 12:45:13;;;;;;;119.13;46.70;;;1.10;99.90;;;;;;5115289;27;20047;-71
2022/12/11 12:47:45;;;;;;;118.70;48.30;;;1.10;99.90;;;;;;5111670;27;20657;-78
2022/12/11 12:50:23;;;;;;;108.73;46.27;;;1.10;99.90;;;;;;5115438;27;20097;-78
2022/12/11 12:52:52;;;;;;;101.93;46.93;;;1.10;99.90;;;;;;5089015;28;20055;-78
2022/12/11 12:55:27;;;;;;;104.80;46.00;;;1.20;99.90;;;;;;5086702;27;20605;-78
2022/12/11 12:57:59;;;;;;;85.60;42.80;;;1.20;99.90;;;;;;5086608;27;20040;-78
2022/12/11 13:00:28;;;;;;;90.10;43.07;;;1.20;99.90;;;;;;5085135;27;20042;-78